Strona główna
METAR-TAF:

METAR-TAF

Lotnisko :

Mersing, Malezja

Szerokość geograficzna: 02-23-00N, Długość geograficzna: 103-51-34E, wysokość: 3 m

Aktualna obserwacja pogody

Raport powstał 10 minut temu, godzina 07:00 UTC
Wiatr 13 kt od północ
Temperatura 31°C
Wilgotność 71%
Ciśnienie 1013 hPa
Widzialność 10 km lub więcej
Mało chmury na wysokości 1700 ft, Cumulonimbus.
Rozproszone chmury na wysokości 2000 ft

METAR: WMAU 220700Z 36013KT 9999 FEW017CB SCT020 31/25 Q1013

czas: 15:10 (07:10 UTC)


TAF: brakujący

Obserwacja i prognoza pogody dla ponad 4000 lotnisk (raport METAR i TAF).

Dostępne stacje oznaczono żółtymi i czerwonymi punktami na mapie.

Najedź kursorem aby zobaczyć nazwę stacji.

Kliknij aby zobaczyć obserwacje i prognozy pogody.

Aby zmienić mapę: kliknij na zielony przycisk z czarnym krzyżykiem, aby powiększyć; na zielony przycisk z myślnikiem, aby pomniejszyć; na zielone strzałki, aby przejść do map sąsiednich.


METAR-TAF: